Time;durP1;ratioP1;P1;durP2;ratioP2;P2;SDS_P1;SDS_P2;PMS_P1;PMS_P2;Temp;Humidity;BMP_temperature;BMP_pressure;BME280_temperature;BME280_humidity;BME280_pressure;Samples;Min_cycle;Max_cycle;Signal;HPM_P1;HPM_P2
2021/01/05 00:02:10;;;;;;;38.47;26.90;;;7.00;93.20;;;;;;5020958;28;20524;-84
2021/01/05 00:04:36;;;;;;;44.73;27.93;;;7.00;93.20;;;;;;5020194;28;20875;-84
2021/01/05 00:07:04;;;;;;;37.33;26.37;;;7.00;93.20;;;;;;5012542;28;20195;-84
2021/01/05 00:09:30;;;;;;;40.37;25.40;;;7.00;93.20;;;;;;5019841;28;20279;-85
2021/01/05 00:12:11;;;;;;;41.93;26.13;;;7.10;93.20;;;;;;5026869;28;20179;-84
2021/01/05 00:14:46;;;;;;;39.23;25.83;;;7.10;93.10;;;;;;5032499;28;20192;-84
2021/01/05 00:17:17;;;;;;;39.30;25.67;;;7.10;93.10;;;;;;5027582;28;20229;-84
2021/01/05 00:19:44;;;;;;;38.43;25.83;;;7.10;93.10;;;;;;5033095;28;20188;-84
2021/01/05 00:22:10;;;;;;;40.60;26.93;;;7.10;93.10;;;;;;5029549;28;20187;-85
2021/01/05 00:24:35;;;;;;;44.27;27.47;;;7.10;93.10;;;;;;5021196;28;20222;-84
2021/01/05 00:27:02;;;;;;;40.13;25.77;;;7.10;93.10;;;;;;5021217;28;20186;-84
2021/01/05 00:29:28;;;;;;;39.33;25.37;;;7.10;93.10;;;;;;5021396;28;20682;-85
2021/01/05 00:32:16;;;;;;;37.73;25.10;;;7.10;93.10;;;;;;5020770;28;20187;-84
2021/01/05 00:34:43;;;;;;;34.90;23.67;;;7.20;93.10;;;;;;5016889;28;20213;-86
2021/01/05 00:37:10;;;;;;;36.77;23.60;;;7.20;93.10;;;;;;5032293;28;20210;-85
2021/01/05 00:39:36;;;;;;;36.17;22.40;;;7.20;93.10;;;;;;5026257;28;20186;-85
2021/01/05 00:42:01;;;;;;;33.33;22.27;;;7.20;92.90;;;;;;5019883;28;20187;-85
2021/01/05 00:44:27;;;;;;;33.40;21.83;;;7.10;92.90;;;;;;5019951;28;20229;-85
2021/01/05 00:46:53;;;;;;;37.47;24.30;;;7.10;92.90;;;;;;5016794;28;20239;-86
2021/01/05 00:49:18;;;;;;;35.27;22.37;;;7.10;92.90;;;;;;5016376;28;20203;-85
2021/01/05 00:51:44;;;;;;;34.10;22.17;;;7.10;92.90;;;;;;5016800;28;20188;-84
2021/01/05 00:54:10;;;;;;;34.67;21.90;;;7.10;92.90;;;;;;5014146;28;20221;-84
2021/01/05 00:56:37;;;;;;;34.53;22.40;;;7.10;92.90;;;;;;5023731;28;20205;-84
2021/01/05 00:59:03;;;;;;;35.77;22.10;;;7.10;92.90;;;;;;5017458;28;20189;-85
2021/01/05 01:01:29;;;;;;;35.10;21.87;;;7.00;92.90;;;;;;5018070;28;20205;-85
2021/01/05 01:03:55;;;;;;;34.33;23.27;;;7.00;92.90;;;;;;5025587;28;20620;-84
2021/01/05 01:06:21;;;;;;;31.60;21.83;;;7.00;92.90;;;;;;5015376;28;20600;-84
2021/01/05 01:08:46;;;;;;;34.23;22.60;;;7.00;92.90;;;;;;5017673;28;20537;-85
2021/01/05 01:11:13;;;;;;;37.10;22.03;;;7.00;92.90;;;;;;5007368;28;20224;-85
2021/01/05 01:13:39;;;;;;;35.97;20.60;;;7.00;93.00;;;;;;5012356;28;20176;-85
2021/01/05 01:16:07;;;;;;;35.03;21.90;;;7.00;93.00;;;;;;5017120;28;20392;-84
2021/01/05 01:18:33;;;;;;;35.83;21.73;;;7.00;93.00;;;;;;5016251;28;20238;-85
2021/01/05 01:20:59;;;;;;;30.73;19.93;;;7.00;93.00;;;;;;5013684;28;20259;-85
2021/01/05 01:23:25;;;;;;;32.57;20.57;;;7.00;93.00;;;;;;5014234;28;20264;-84
2021/01/05 01:25:51;;;;;;;33.60;20.83;;;7.00;93.00;;;;;;5014804;28;20635;-84
2021/01/05 01:28:17;;;;;;;29.20;18.73;;;7.10;93.00;;;;;;5018476;28;20543;-84
2021/01/05 01:30:47;;;;;;;35.90;20.50;;;7.00;93.00;;;;;;5016915;28;20222;-86
2021/01/05 01:33:13;;;;;;;31.30;18.67;;;7.10;93.00;;;;;;5016540;28;20251;-85
2021/01/05 01:35:39;;;;;;;32.73;17.93;;;7.10;93.00;;;;;;5010339;28;20203;-84
2021/01/05 01:38:05;;;;;;;29.83;18.80;;;7.10;93.00;;;;;;5012697;28;20620;-85
2021/01/05 01:40:40;;;;;;;29.27;18.07;;;7.10;93.00;;;;;;5018811;28;20196;-84
2021/01/05 01:43:06;;;;;;;25.53;16.83;;;7.10;93.00;;;;;;5019146;28;20187;-84
2021/01/05 01:45:33;;;;;;;26.60;16.03;;;7.10;93.00;;;;;;5026236;28;20231;-84
2021/01/05 01:48:02;;;;;;;25.50;16.40;;;7.10;92.90;;;;;;5047431;28;20237;-84
2021/01/05 01:50:31;;;;;;;26.30;17.63;;;7.10;92.90;;;;;;5046021;28;20193;-85
2021/01/05 01:53:39;;;;;;;30.10;16.67;;;7.10;92.90;;;;;;5023569;28;20548;-85
2021/01/05 01:56:27;;;;;;;28.77;15.90;;;7.10;92.90;;;;;;4992304;28;20277;-86
2021/01/05 01:59:21;;;;;;;30.53;16.57;;;7.00;92.90;;;;;;5021814;28;20206;-84
2021/01/05 02:02:03;;;;;;;31.10;17.70;;;7.00;92.90;;;;;;5030399;28;20224;-84
2021/01/05 02:04:54;;;;;;;33.80;18.33;;;7.00;92.80;;;;;;5031709;28;20198;-85
2021/01/05 02:07:39;;;;;;;33.27;17.77;;;6.90;92.80;;;;;;5039524;28;20627;-84
2021/01/05 02:10:21;;;;;;;35.60;18.13;;;6.80;92.80;;;;;;5040710;28;20188;-84
2021/01/05 02:13:08;;;;;;;37.63;19.53;;;6.80;92.90;;;;;;5023619;28;20206;-85
2021/01/05 02:16:02;;;;;;;38.13;20.07;;;6.80;93.00;;;;;;5012133;28;20194;-84
2021/01/05 02:18:50;;;;;;;39.53;19.00;;;6.80;93.00;;;;;;5022362;28;20183;-85
2021/01/05 02:21:28;;;;;;;38.77;20.00;;;6.70;93.00;;;;;;5037811;28;20249;-85
2021/01/05 02:24:20;;;;;;;37.97;19.07;;;6.70;93.00;;;;;;5023117;28;20208;-84
2021/01/05 02:27:09;;;;;;;44.90;20.13;;;6.70;93.00;;;;;;5026985;28;20183;-84
2021/01/05 02:29:53;;;;;;;44.23;22.47;;;6.70;93.10;;;;;;5027421;28;20277;-85
2021/01/05 02:32:53;;;;;;;47.90;22.87;;;6.70;93.10;;;;;;5027121;28;20179;-85
2021/01/05 02:36:09;;;;;;;44.37;21.60;;;6.70;93.10;;;;;;5024447;28;20188;-86
2021/01/05 02:39:01;;;;;;;48.90;23.03;;;6.60;93.10;;;;;;4966727;28;20202;-85
2021/01/05 02:41:43;;;;;;;56.40;22.07;;;6.60;93.10;;;;;;5009702;28;20215;-84
2021/01/05 02:44:33;;;;;;;45.57;22.10;;;6.60;93.20;;;;;;5021860;28;20183;-85
2021/01/05 02:47:22;;;;;;;41.03;20.43;;;6.50;93.20;;;;;;5027743;28;20219;-84
2021/01/05 02:50:09;;;;;;;39.03;20.03;;;6.50;93.20;;;;;;5025236;28;20176;-84
2021/01/05 02:53:16;;;;;;;46.53;20.93;;;6.50;93.40;;;;;;5017415;28;20205;-84
2021/01/05 02:56:23;;;;;;;51.53;22.70;;;6.50;93.30;;;;;;5028229;28;20350;-85
2021/01/05 02:59:07;;;;;;;44.67;21.90;;;6.50;93.40;;;;;;5035691;28;20553;-84
2021/01/05 03:01:58;;;;;;;54.30;21.73;;;6.50;93.40;;;;;;5039930;28;20202;-85
2021/01/05 03:04:23;;;;;;;46.80;22.57;;;6.50;93.40;;;;;;5023697;28;20218;-85
2021/01/05 03:06:52;;;;;;;55.33;23.80;;;6.50;93.40;;;;;;5019038;28;20203;-85
2021/01/05 03:09:53;;;;;;;71.37;24.70;;;6.50;93.40;;;;;;5030770;28;20205;-84
2021/01/05 03:12:44;;;;;;;67.93;25.50;;;6.50;93.40;;;;;;5016194;28;20183;-85
2021/01/05 03:15:33;;;;;;;63.90;24.80;;;6.50;93.40;;;;;;5033032;28;20247;-85
2021/01/05 03:18:13;;;;;;;81.57;27.77;;;6.50;93.50;;;;;;5016036;28;20194;-84
2021/01/05 03:20:44;;;;;;;102.37;27.43;;;6.50;93.50;;;;;;5039533;28;20190;-84
2021/01/05 03:23:13;;;;;;;76.40;26.87;;;6.50;93.50;;;;;;5039082;28;20183;-85
2021/01/05 03:25:43;;;;;;;142.70;30.10;;;6.50;93.60;;;;;;5033809;28;20695;-85
2021/01/05 03:28:13;;;;;;;85.67;27.57;;;6.50;93.60;;;;;;5016055;28;20211;-84
2021/01/05 03:31:04;;;;;;;71.87;25.93;;;6.50;93.60;;;;;;5021309;28;20645;-84
2021/01/05 03:33:30;;;;;;;97.57;25.83;;;6.50;93.70;;;;;;5039695;28;20230;-84
2021/01/05 03:35:55;;;;;;;68.87;25.83;;;6.50;93.70;;;;;;5019635;28;20635;-86
2021/01/05 03:38:21;;;;;;;73.43;26.47;;;6.50;93.70;;;;;;5022490;28;20184;-85
2021/01/05 03:40:47;;;;;;;62.13;25.03;;;6.60;93.80;;;;;;5013844;28;20282;-84
2021/01/05 03:43:13;;;;;;;64.37;27.23;;;6.60;93.80;;;;;;5021027;28;20188;-84
2021/01/05 03:45:38;;;;;;;62.60;25.37;;;6.60;93.80;;;;;;5008017;28;20830;-84
2021/01/05 03:48:05;;;;;;;73.37;26.43;;;6.70;93.80;;;;;;5011690;28;20203;-84
2021/01/05 03:50:30;;;;;;;58.63;23.97;;;6.60;93.80;;;;;;5017788;28;20491;-84
2021/01/05 03:52:56;;;;;;;50.43;24.33;;;6.60;93.80;;;;;;5017268;28;20180;-85
2021/01/05 03:55:22;;;;;;;45.27;21.83;;;6.70;93.80;;;;;;5017544;28;20180;-84
2021/01/05 03:57:47;;;;;;;49.80;22.10;;;6.70;93.80;;;;;;5015706;28;20215;-84
2021/01/05 04:00:29;;;;;;;58.07;23.67;;;6.70;93.80;;;;;;5017353;28;20200;-84
2021/01/05 04:02:57;;;;;;;47.83;21.07;;;6.70;93.80;;;;;;5018374;28;20535;-85
2021/01/05 04:05:25;;;;;;;41.73;19.03;;;6.70;93.80;;;;;;5005043;28;20196;-85
2021/01/05 04:07:51;;;;;;;46.03;18.97;;;6.70;93.80;;;;;;5005652;28;20208;-84
2021/01/05 04:10:17;;;;;;;40.47;18.33;;;6.70;93.70;;;;;;5017949;28;20195;-84
2021/01/05 04:12:44;;;;;;;42.50;18.80;;;6.70;93.70;;;;;;5016319;28;20195;-84
2021/01/05 04:15:30;;;;;;;35.57;16.37;;;6.70;93.80;;;;;;5009221;28;20185;-85
2021/01/05 04:17:57;;;;;;;35.17;16.93;;;6.70;93.70;;;;;;5011599;28;20643;-84
2021/01/05 04:20:24;;;;;;;36.03;16.63;;;6.70;93.60;;;;;;5015246;28;20193;-84
2021/01/05 04:22:50;;;;;;;39.30;17.87;;;6.70;93.70;;;;;;5017447;28;20555;-85
2021/01/05 04:25:18;;;;;;;42.63;19.10;;;6.70;93.60;;;;;;5010016;28;20192;-85
2021/01/05 04:27:44;;;;;;;43.27;18.60;;;6.70;93.60;;;;;;5014596;28;20227;-86
2021/01/05 04:30:19;;;;;;;40.87;17.13;;;6.70;93.60;;;;;;5010841;28;20188;-84
2021/01/05 04:32:45;;;;;;;43.27;17.63;;;6.60;93.60;;;;;;5013343;28;20184;-84
2021/01/05 04:35:12;;;;;;;42.37;18.10;;;6.60;93.60;;;;;;5017264;28;20176;-84
2021/01/05 04:37:38;;;;;;;33.13;16.77;;;6.60;93.50;;;;;;5019817;28;20271;-85
2021/01/05 04:40:05;;;;;;;40.90;18.63;;;6.60;93.50;;;;;;5037454;28;20222;-86
2021/01/05 04:42:42;;;;;;;45.90;18.87;;;6.60;93.50;;;;;;5011013;28;20189;-85
2021/01/05 04:45:15;;;;;;;42.93;18.87;;;6.60;93.50;;;;;;5018208;28;20183;-85
2021/01/05 04:48:20;;;;;;;53.37;20.77;;;6.50;93.50;;;;;;5024061;28;20591;-85
2021/01/05 04:50:54;;;;;;;60.23;19.63;;;6.50;93.60;;;;;;5010088;28;20290;-85
2021/01/05 04:54:01;;;;;;;53.10;20.23;;;6.50;93.60;;;;;;5023348;28;20187;-85
2021/01/05 04:56:39;;;;;;;58.87;20.43;;;6.50;93.70;;;;;;4962833;28;20225;-85
2021/01/05 04:59:12;;;;;;;93.97;22.33;;;6.40;93.70;;;;;;4964211;29;20279;-86
2021/01/05 05:01:41;;;;;;;69.13;21.67;;;6.40;93.70;;;;;;5011965;28;20234;-84
2021/01/05 05:04:37;;;;;;;81.30;22.37;;;6.40;93.80;;;;;;5018633;28;20198;-85
2021/01/05 05:07:25;;;;;;;72.63;21.87;;;6.40;93.90;;;;;;5038250;28;20193;-85
2021/01/05 05:09:55;;;;;;;79.03;22.10;;;6.40;93.90;;;;;;5024021;28;20187;-85
2021/01/05 05:12:55;;;;;;;94.73;22.40;;;6.40;93.90;;;;;;5024446;28;20630;-85
2021/01/05 05:15:43;;;;;;;106.13;23.77;;;6.30;93.90;;;;;;5014478;28;20651;-85
2021/01/05 05:18:18;;;;;;;87.20;23.90;;;6.30;94.00;;;;;;5032206;28;20198;-85
2021/01/05 05:21:05;;;;;;;158.13;27.50;;;6.30;94.00;;;;;;5029638;28;20211;-85
2021/01/05 05:23:58;;;;;;;136.93;26.57;;;6.30;94.10;;;;;;5027899;28;20234;-85
2021/01/05 05:26:38;;;;;;;129.47;27.37;;;6.30;94.10;;;;;;5039988;28;20205;-84
2021/01/05 05:29:23;;;;;;;102.73;26.10;;;6.30;94.20;;;;;;5041869;28;20293;-85
2021/01/05 05:31:50;;;;;;;116.53;25.73;;;6.30;94.20;;;;;;5037342;28;20189;-84
2021/01/05 05:34:23;;;;;;;128.30;27.23;;;6.40;94.20;;;;;;5023143;28;20187;-85
2021/01/05 05:37:10;;;;;;;156.23;27.33;;;6.40;94.20;;;;;;5023429;28;20223;-85
2021/01/05 05:39:47;;;;;;;226.50;30.70;;;6.40;94.20;;;;;;5015389;28;20194;-85
2021/01/05 05:42:26;;;;;;;166.90;29.93;;;6.40;94.20;;;;;;5033818;28;20187;-85
2021/01/05 05:45:07;;;;;;;163.53;28.73;;;6.40;94.30;;;;;;5021944;28;20175;-85
2021/01/05 05:47:47;;;;;;;193.77;30.07;;;6.30;94.30;;;;;;5022970;28;20222;-85
2021/01/05 05:50:22;;;;;;;145.03;27.10;;;6.30;94.40;;;;;;5024180;28;20201;-85
2021/01/05 05:53:28;;;;;;;160.77;29.07;;;6.30;94.50;;;;;;5025815;28;20187;-85
2021/01/05 05:56:13;;;;;;;149.67;26.20;;;6.30;94.50;;;;;;4975199;28;20699;-85
2021/01/05 05:58:43;;;;;;;178.03;30.00;;;6.30;94.50;;;;;;4988493;28;20243;-85
2021/01/05 06:01:15;;;;;;;264.83;33.40;;;6.40;94.60;;;;;;5003360;28;20286;-84
2021/01/05 06:03:41;;;;;;;165.33;32.13;;;6.30;94.50;;;;;;5021141;28;20202;-86
2021/01/05 06:06:07;;;;;;;200.33;32.27;;;6.30;94.60;;;;;;5024495;28;20215;-85
2021/01/05 06:08:32;;;;;;;315.37;35.67;;;6.30;94.60;;;;;;5016558;28;20285;-85
2021/01/05 06:10:58;;;;;;;315.17;37.17;;;6.30;94.60;;;;;;5021468;28;20195;-85
2021/01/05 06:13:24;;;;;;;218.13;32.87;;;6.30;94.70;;;;;;5041343;28;20175;-87
2021/01/05 06:15:50;;;;;;;195.90;32.10;;;6.30;94.70;;;;;;5027539;28;20202;-85
2021/01/05 06:18:17;;;;;;;212.50;32.53;;;6.30;94.70;;;;;;5015553;28;20206;-85
2021/01/05 06:20:43;;;;;;;187.50;35.77;;;6.30;94.80;;;;;;5028520;28;20233;-85
2021/01/05 06:23:09;;;;;;;311.27;38.50;;;6.30;94.80;;;;;;5014692;28;20184;-85
2021/01/05 06:25:36;;;;;;;241.57;36.13;;;6.30;94.90;;;;;;5020905;28;20198;-85
2021/01/05 06:28:02;;;;;;;322.97;37.43;;;6.30;94.80;;;;;;5015086;28;20652;-85
2021/01/05 06:30:28;;;;;;;273.57;37.33;;;6.30;94.80;;;;;;5028097;28;20187;-86
2021/01/05 06:32:54;;;;;;;252.77;38.07;;;6.30;94.90;;;;;;5021189;28;20187;-86
2021/01/05 06:35:22;;;;;;;250.50;36.73;;;6.30;94.90;;;;;;5029870;28;20180;-86
2021/01/05 06:37:51;;;;;;;175.33;31.73;;;6.30;94.90;;;;;;5021975;28;20504;-86
2021/01/05 06:40:23;;;;;;;242.27;36.20;;;6.30;94.90;;;;;;5040472;28;20190;-86
2021/01/05 06:42:49;;;;;;;327.53;36.63;;;6.30;94.90;;;;;;5020006;28;20241;-85
2021/01/05 06:45:19;;;;;;;219.63;36.37;;;6.30;94.90;;;;;;5022862;28;20192;-85
2021/01/05 06:47:45;;;;;;;190.23;29.83;;;6.30;94.90;;;;;;5035300;28;20218;-85
2021/01/05 06:50:12;;;;;;;206.77;33.73;;;6.30;94.90;;;;;;5018364;28;20188;-85
2021/01/05 06:52:37;;;;;;;233.50;35.97;;;6.30;94.90;;;;;;5020365;28;20233;-86
2021/01/05 06:55:03;;;;;;;150.30;29.97;;;6.40;95.00;;;;;;5014883;28;20247;-85
2021/01/05 06:57:29;;;;;;;128.73;29.97;;;6.40;95.00;;;;;;5013692;28;20250;-85
2021/01/05 06:59:55;;;;;;;155.40;28.53;;;6.40;95.00;;;;;;5008514;28;20211;-85
2021/01/05 07:02:20;;;;;;;155.90;30.73;;;6.40;95.00;;;;;;5011261;28;20191;-85
2021/01/05 07:04:46;;;;;;;187.20;31.67;;;6.40;95.00;;;;;;5025371;28;20310;-85
2021/01/05 07:07:12;;;;;;;156.37;30.27;;;6.40;95.00;;;;;;5038462;28;20587;-85
2021/01/05 07:09:38;;;;;;;206.23;34.47;;;6.40;95.00;;;;;;5028603;28;20234;-86
2021/01/05 07:12:04;;;;;;;379.33;39.37;;;6.40;95.00;;;;;;5035580;28;20195;-85
2021/01/05 07:14:30;;;;;;;187.77;31.07;;;6.40;95.00;;;;;;5038379;28;20253;-85
2021/01/05 07:16:56;;;;;;;285.93;35.63;;;6.40;95.00;;;;;;5012502;28;20660;-85
2021/01/05 07:19:22;;;;;;;221.60;32.53;;;6.50;95.00;;;;;;5010315;28;20184;-85
2021/01/05 07:21:48;;;;;;;147.97;31.13;;;6.50;95.00;;;;;;5017749;28;20214;-85
2021/01/05 07:24:14;;;;;;;157.27;29.83;;;6.50;95.00;;;;;;5020552;28;20191;-85
2021/01/05 07:26:45;;;;;;;147.97;29.33;;;6.50;94.90;;;;;;5020756;28;20270;-87
2021/01/05 07:29:20;;;;;;;185.27;31.10;;;6.50;94.90;;;;;;5034815;28;20211;-85
2021/01/05 07:31:46;;;;;;;273.03;31.33;;;6.50;94.90;;;;;;5020390;28;20187;-86
2021/01/05 07:34:13;;;;;;;228.53;31.07;;;6.50;94.90;;;;;;5036943;28;20186;-86
2021/01/05 07:36:43;;;;;;;224.43;32.90;;;6.50;94.90;;;;;;5019093;28;20591;-86
2021/01/05 07:39:15;;;;;;;129.87;25.33;;;6.50;94.90;;;;;;5029791;28;20229;-85
2021/01/05 07:41:41;;;;;;;184.70;30.20;;;6.50;94.90;;;;;;5012082;28;20282;-86
2021/01/05 07:44:07;;;;;;;174.83;28.63;;;6.50;94.90;;;;;;5032261;28;20739;-86
2021/01/05 07:46:33;;;;;;;163.43;27.63;;;6.50;94.90;;;;;;5005936;28;20244;-86
2021/01/05 07:48:58;;;;;;;161.77;30.47;;;6.50;94.90;;;;;;5011531;28;20264;-86
2021/01/05 07:51:24;;;;;;;165.87;27.57;;;6.50;94.90;;;;;;5037235;28;20186;-86
2021/01/05 07:53:50;;;;;;;214.50;29.00;;;6.50;95.00;;;;;;5035084;28;20175;-86
2021/01/05 07:56:15;;;;;;;188.30;29.70;;;6.50;94.90;;;;;;5007770;28;20185;-86
2021/01/05 07:58:41;;;;;;;312.10;34.50;;;6.50;95.00;;;;;;5024357;28;20193;-87
2021/01/05 08:01:07;;;;;;;187.73;25.17;;;6.50;95.00;;;;;;5029814;28;20190;-86
2021/01/05 08:03:32;;;;;;;189.07;27.57;;;6.50;95.00;;;;;;5020932;28;20196;-86
2021/01/05 08:05:58;;;;;;;132.17;26.07;;;6.50;95.00;;;;;;5013452;28;20188;-87
2021/01/05 08:08:25;;;;;;;63.67;17.10;;;6.50;95.00;;;;;;5013825;28;20537;-86
2021/01/05 08:10:51;;;;;;;60.97;16.37;;;6.50;95.00;;;;;;5017862;28;20179;-86
2021/01/05 08:13:17;;;;;;;65.10;15.63;;;6.60;95.10;;;;;;5018106;28;20217;-86
2021/01/05 08:15:43;;;;;;;63.17;16.33;;;6.60;95.10;;;;;;5017075;28;20258;-86
2021/01/05 08:18:10;;;;;;;57.40;15.90;;;6.60;95.10;;;;;;5016067;28;20264;-86
2021/01/05 08:20:35;;;;;;;60.13;17.20;;;6.60;95.10;;;;;;5011572;28;20211;-86
2021/01/05 08:23:03;;;;;;;62.57;17.03;;;6.60;95.10;;;;;;5026599;28;20533;-85
2021/01/05 08:25:31;;;;;;;62.33;17.00;;;6.60;95.10;;;;;;5017075;28;20187;-87
2021/01/05 08:27:56;;;;;;;64.50;18.17;;;6.60;95.20;;;;;;5017871;28;20544;-84
2021/01/05 08:30:29;;;;;;;52.87;14.13;;;6.60;95.20;;;;;;5032812;28;20171;-83
2021/01/05 08:32:59;;;;;;;44.10;14.80;;;6.70;95.20;;;;;;5016824;28;20190;-85
2021/01/05 08:35:25;;;;;;;41.97;14.90;;;6.70;95.20;;;;;;5037358;28;20637;-85
2021/01/05 08:37:51;;;;;;;43.00;14.27;;;6.70;95.20;;;;;;5037158;28;20197;-86
2021/01/05 08:40:28;;;;;;;45.17;16.27;;;6.60;95.10;;;;;;5009098;28;20194;-86
2021/01/05 08:42:55;;;;;;;52.83;15.53;;;6.60;95.10;;;;;;5014713;28;20206;-86
2021/01/05 08:45:21;;;;;;;47.67;15.67;;;6.50;95.10;;;;;;5017503;28;20587;-85
2021/01/05 08:47:47;;;;;;;58.27;18.40;;;6.60;95.20;;;;;;5019603;28;20211;-85
2021/01/05 08:50:28;;;;;;;61.87;18.33;;;6.50;95.20;;;;;;5035463;28;20183;-86
2021/01/05 08:52:59;;;;;;;64.97;20.53;;;6.50;95.20;;;;;;5013474;28;20213;-86
2021/01/05 08:55:24;;;;;;;79.20;23.50;;;6.50;95.20;;;;;;5028454;28;20183;-87
2021/01/05 08:57:50;;;;;;;72.37;22.63;;;6.50;95.20;;;;;;5035784;28;20198;-86
2021/01/05 09:00:16;;;;;;;80.90;23.63;;;6.60;95.20;;;;;;5015579;28;20184;-86
2021/01/05 09:02:42;;;;;;;82.17;24.07;;;6.60;95.20;;;;;;5034305;28;20192;-86
2021/01/05 09:05:09;;;;;;;58.63;20.80;;;6.60;95.50;;;;;;5017578;28;20190;-88
2021/01/05 09:07:35;;;;;;;74.47;23.50;;;6.60;95.20;;;;;;5012636;28;20647;-86
2021/01/05 09:10:01;;;;;;;64.30;23.63;;;6.60;95.10;;;;;;5025385;28;20226;-87
2021/01/05 09:12:35;;;;;;;73.43;24.93;;;6.60;95.10;;;;;;5013268;28;20187;-87
2021/01/05 09:15:02;;;;;;;76.27;25.60;;;6.60;95.10;;;;;;5034810;28;20176;-90
2021/01/05 09:17:29;;;;;;;71.67;23.57;;;6.60;95.10;;;;;;5033814;28;20179;-87
2021/01/05 09:19:54;;;;;;;71.97;23.37;;;6.70;95.10;;;;;;5011809;28;20186;-87
2021/01/05 09:22:24;;;;;;;69.80;22.77;;;6.70;95.10;;;;;;5012813;28;20540;-88
2021/01/05 09:24:50;;;;;;;63.83;22.63;;;6.70;95.10;;;;;;5009109;28;20233;-88
2021/01/05 09:27:19;;;;;;;72.33;23.43;;;6.70;95.00;;;;;;5015985;28;20202;-89
2021/01/05 09:29:46;;;;;;;86.87;26.47;;;6.70;95.00;;;;;;5001332;28;20215;-90
2021/01/05 09:32:13;;;;;;;67.77;24.17;;;6.80;95.00;;;;;;5017447;28;20187;-90
2021/01/05 09:34:39;;;;;;;70.93;25.30;;;6.80;95.00;;;;;;5017719;28;20183;-89
2021/01/05 09:37:06;;;;;;;80.93;23.73;;;6.80;95.00;;;;;;5018204;28;20202;-88
2021/01/05 09:39:32;;;;;;;81.60;25.97;;;6.80;95.00;;;;;;5017408;28;20283;-89
2021/01/05 09:42:01;;;;;;;77.33;23.93;;;6.90;95.00;;;;;;5017207;28;20190;-87
2021/01/05 09:44:28;;;;;;;79.07;25.00;;;7.00;95.00;;;;;;5016517;28;20211;-90
2021/01/05 09:46:57;;;;;;;77.83;25.07;;;7.00;94.90;;;;;;5024723;28;20242;-89
2021/01/05 09:49:24;;;;;;;63.83;24.57;;;7.00;94.80;;;;;;5022215;28;20297;-89
2021/01/05 09:51:49;;;;;;;73.37;24.67;;;7.10;94.80;;;;;;5021748;28;20629;-89
2021/01/05 09:54:17;;;;;;;62.10;23.33;;;7.10;94.80;;;;;;5022258;28;20179;-88
2021/01/05 09:56:50;;;;;;;56.33;21.60;;;7.10;94.80;;;;;;5039472;28;20197;-89
2021/01/05 09:59:16;;;;;;;56.10;21.07;;;7.10;94.80;;;;;;5021288;28;20621;-86
2021/01/05 10:01:42;;;;;;;52.20;21.53;;;7.10;94.70;;;;;;5021148;28;20187;-88
2021/01/05 10:04:07;;;;;;;51.80;19.57;;;7.20;94.80;;;;;;5020252;28;20186;-87
2021/01/05 10:06:34;;;;;;;43.87;17.03;;;7.20;94.80;;;;;;5019857;28;20570;-86
2021/01/05 10:09:07;;;;;;;45.83;18.57;;;7.20;94.80;;;;;;5033257;28;20218;-85
2021/01/05 10:11:38;;;;;;;44.37;18.23;;;7.20;94.70;;;;;;5019697;28;20205;-88
2021/01/05 10:14:04;;;;;;;48.07;20.10;;;7.20;94.70;;;;;;5015751;28;20654;-87
2021/01/05 10:16:31;;;;;;;49.43;20.23;;;7.20;94.70;;;;;;5010306;28;20262;-86
2021/01/05 10:18:57;;;;;;;50.60;20.83;;;7.20;94.80;;;;;;5020250;28;20569;-88
2021/01/05 10:21:31;;;;;;;42.00;19.10;;;7.20;94.80;;;;;;5020004;28;20651;-89
2021/01/05 10:23:57;;;;;;;42.30;20.07;;;7.20;94.80;;;;;;5019783;28;20178;-87
2021/01/05 10:26:22;;;;;;;39.43;18.83;;;7.30;94.80;;;;;;5019836;28;20233;-88
2021/01/05 10:28:48;;;;;;;41.43;20.40;;;7.30;94.70;;;;;;5019799;28;20207;-89
2021/01/05 10:31:14;;;;;;;41.93;19.23;;;7.30;94.80;;;;;;5017374;28;20187;-89
2021/01/05 10:33:40;;;;;;;43.73;20.33;;;7.30;94.70;;;;;;5036739;28;20198;-88
2021/01/05 10:36:06;;;;;;;40.53;18.80;;;7.20;94.70;;;;;;5020036;28;20187;-86
2021/01/05 10:38:32;;;;;;;40.23;20.07;;;7.30;94.80;;;;;;5031785;28;20212;-88
2021/01/05 10:40:57;;;;;;;39.37;18.90;;;7.30;94.70;;;;;;5018249;28;20194;-87
2021/01/05 10:43:23;;;;;;;38.13;17.90;;;7.20;94.80;;;;;;5037435;28;20294;-88
2021/01/05 10:45:49;;;;;;;41.20;19.50;;;7.20;94.80;;;;;;5036693;28;20282;-87
2021/01/05 10:48:15;;;;;;;44.43;21.37;;;7.20;94.80;;;;;;5019232;28;20316;-87
2021/01/05 10:50:40;;;;;;;47.33;22.27;;;7.20;94.80;;;;;;5018815;28;20252;-89
2021/01/05 10:53:06;;;;;;;48.13;21.53;;;7.20;94.80;;;;;;5036321;28;20194;-87
2021/01/05 10:55:32;;;;;;;48.20;22.00;;;7.20;94.80;;;;;;5047130;28;20267;-87
2021/01/05 10:57:58;;;;;;;56.57;22.30;;;7.20;94.90;;;;;;5019302;28;20211;-86
2021/01/05 11:00:25;;;;;;;44.53;22.00;;;7.20;95.00;;;;;;5014777;28;20187;-86
2021/01/05 11:02:50;;;;;;;52.03;23.63;;;7.20;95.00;;;;;;5012210;28;20230;-88
2021/01/05 11:05:18;;;;;;;44.20;20.73;;;7.10;94.90;;;;;;5015536;28;20218;-88
2021/01/05 11:07:49;;;;;;;45.83;21.73;;;7.20;95.00;;;;;;5027677;28;20666;-86
2021/01/05 11:10:21;;;;;;;43.97;22.23;;;7.20;94.90;;;;;;5036269;28;20187;-89
2021/01/05 11:12:47;;;;;;;49.50;22.63;;;7.10;94.90;;;;;;5021779;28;20194;-89
2021/01/05 11:15:15;;;;;;;48.30;22.40;;;7.20;95.00;;;;;;5018326;28;20191;-88
2021/01/05 11:17:44;;;;;;;43.17;22.60;;;7.10;95.00;;;;;;5022429;28;20248;-89
2021/01/05 11:20:14;;;;;;;48.40;23.10;;;7.10;95.00;;;;;;5022127;28;20619;-90
2021/01/05 11:22:39;;;;;;;37.43;21.63;;;7.20;95.00;;;;;;5001514;28;20193;-85
2021/01/05 11:25:06;;;;;;;42.30;20.50;;;7.20;95.00;;;;;;5032162;28;20501;-86
2021/01/05 11:27:32;;;;;;;41.17;22.10;;;7.20;95.00;;;;;;5015226;28;20282;-89
2021/01/05 11:29:58;;;;;;;42.50;22.03;;;7.10;95.00;;;;;;5011086;28;20663;-88
2021/01/05 11:32:24;;;;;;;38.87;21.43;;;7.10;95.00;;;;;;5018502;28;20187;-89
2021/01/05 11:34:50;;;;;;;38.03;19.03;;;7.10;95.10;;;;;;5015630;28;20176;-87
2021/01/05 11:37:19;;;;;;;37.60;21.27;;;7.20;95.10;;;;;;5035666;28;20194;-88
2021/01/05 11:39:47;;;;;;;32.23;18.30;;;7.20;95.10;;;;;;5018060;28;20183;-87
2021/01/05 11:42:19;;;;;;;32.50;18.27;;;7.10;95.10;;;;;;5035436;28;20255;-88
2021/01/05 11:44:46;;;;;;;29.03;18.10;;;7.10;95.10;;;;;;5035841;28;20202;-87
2021/01/05 11:47:17;;;;;;;30.73;18.60;;;7.20;95.10;;;;;;5030461;28;20314;-88
2021/01/05 11:49:43;;;;;;;31.97;19.20;;;7.20;95.10;;;;;;5014139;28;20210;-86
2021/01/05 11:52:12;;;;;;;42.53;21.10;;;7.20;95.10;;;;;;5031141;28;20233;-89
2021/01/05 11:54:38;;;;;;;32.20;18.23;;;7.10;95.10;;;;;;5017837;28;20190;-90
2021/01/05 11:57:04;;;;;;;33.63;19.17;;;7.10;95.20;;;;;;5017976;28;20179;-87
2021/01/05 11:59:30;;;;;;;37.17;17.33;;;7.10;95.30;;;;;;5017901;28;20187;-86
2021/01/05 12:02:01;;;;;;;37.43;19.43;;;7.10;95.30;;;;;;5033192;28;20186;-87
2021/01/05 12:04:27;;;;;;;29.43;17.50;;;7.10;95.30;;;;;;5017030;28;20275;-91
2021/01/05 12:06:54;;;;;;;31.40;17.67;;;7.10;95.40;;;;;;5015044;28;20412;-89
2021/01/05 12:09:23;;;;;;;36.37;18.57;;;7.10;95.40;;;;;;5018162;28;20593;-90
2021/01/05 12:11:54;;;;;;;33.20;16.90;;;7.10;95.30;;;;;;5018167;28;20191;-89
2021/01/05 12:14:19;;;;;;;31.83;17.37;;;7.20;95.40;;;;;;5008093;28;20210;-89
2021/01/05 12:16:48;;;;;;;34.17;17.47;;;7.20;95.40;;;;;;5009403;28;20183;-88
2021/01/05 12:19:27;;;;;;;31.00;17.53;;;7.20;95.40;;;;;;5018776;28;20408;-87
2021/01/05 12:22:00;;;;;;;31.33;17.37;;;7.20;95.40;;;;;;5018040;28;20191;-88
2021/01/05 12:24:28;;;;;;;32.10;16.43;;;7.20;95.40;;;;;;5029320;28;20647;-88
2021/01/05 12:27:03;;;;;;;22.20;12.33;;;7.20;95.40;;;;;;5014512;28;20192;-87
2021/01/05 12:29:31;;;;;;;24.27;14.73;;;7.20;95.30;;;;;;5015864;28;20545;-87
2021/01/05 12:32:09;;;;;;;25.07;13.17;;;7.20;95.40;;;;;;5032509;28;20217;-88
2021/01/05 12:34:38;;;;;;;25.60;15.47;;;7.20;95.40;;;;;;5015092;28;20622;-89
2021/01/05 12:37:10;;;;;;;29.37;15.70;;;7.20;95.40;;;;;;5002387;28;20494;-87
2021/01/05 12:39:36;;;;;;;21.97;13.37;;;7.20;95.40;;;;;;5017537;28;20183;-89
2021/01/05 12:42:19;;;;;;;25.43;13.70;;;7.30;95.40;;;;;;5019425;28;20498;-84
2021/01/05 12:44:45;;;;;;;22.53;12.67;;;7.30;95.40;;;;;;5019759;28;20195;-88
2021/01/05 12:47:11;;;;;;;27.27;13.37;;;7.30;95.40;;;;;;5003456;28;20328;-86
2021/01/05 12:49:39;;;;;;;21.00;11.97;;;7.30;95.40;;;;;;5021671;28;20220;-89
2021/01/05 12:52:10;;;;;;;24.20;14.07;;;7.40;95.50;;;;;;5005604;28;20215;-86
2021/01/05 12:54:36;;;;;;;21.20;13.47;;;7.40;95.50;;;;;;5017964;28;20641;-88
2021/01/05 12:57:07;;;;;;;20.23;12.37;;;7.40;95.50;;;;;;5013290;28;20825;-86